Airfield :
LOGIN :

Register | Disclaimer

   EN    FR    IT 

 










Legend :    VFR   Marginal VFR   IFR   Intensive IFR   Very Intensive IFR
Visi :
Ceiling :
>= 8 km
>= 3000ft
5 to 8 km
1000 to 3000 ft
1500m to 5 km
500 to 1000 ft
800 to 1500m
200 to 500 ft
< 800m
< 200 ft
Symbols :   Thunderstorms  Fog  Heavy snow  Heavy precipitations  Wind > 20 kt
SIGMETs :     Misc.  Thunderstorms  Icing  Turbulence  Mountain Waves  Volcanic Ashes






- Airport Elevation : 183 ft
- IATA code : HAJ


EDDV - Hanover/Langenhagen Int.

CURRENT METAR :
  • 241150Z 25008KT 2800 BR OVC004 00/M01 Q1023 TEMPO 3000

EXPIRED METARs :
  • 241120Z 25007KT 2500 BR OVC004 00/M01 Q1023 TEMPO 3000
  • 241050Z 27005KT 220V300 2500 -DZ BR OVC003 M00/M00 Q1023 TEMPO 3000
  • 241020Z 27007KT 230V290 2200 BR OVC003 M00/M01 Q1024 TEMPO 1200 OVC001
  • 240950Z 27008KT 1800 BR OVC003 M00/M01 Q1024 TEMPO 1200 OVC001
  • 240920Z 27011KT 2000 BR OVC003 M01/M01 Q1023 TEMPO 1200 OVC001

TAF TAF EDDV
Valid from the 24 at 12:00 until the 25 at 12:00 UTC


241100Z 2412/2512 24005KT 2500 BR BKN003
BECMG 2412/2415 5000 BKN008
PROB40
TEMPO 2415/2510 BKN011
PROB30
TEMPO 2418/2508 2000 BR
BECMG 2510/2512 BKN014



MET'MAP, your aeronautical weather chart ! - Copyright ORBIFLY December 2007 - Disclaimer

ORBIFLY MET'MAP TEAM :

Programming & Development : Alexandra Zaïnal
Concept & original design : Baudouin d'Aumeries
Assistance for programming : Marc-Olivier Méhu
Technical & hardware support : Manuel Goepfert

Contact : metmap@orbifly.com




SOURCES & CREDITS :

   NOAA